»·PEaware :: SWA420 KSFO-KLAS

SWA420 :: KSFO-KLAS

FLIGHT INFORMATION

Flight Status: Arrived
Operator:
Southwest Airlines
More flights by this operator :: More flights under this callsign
Pilot: Chris V. (11989)
Aircraft: BOEING 737-800
(B738)
More flights by this aircraft type
Origin: KSFO San Francisco Intl
United States
Destination: KLAS McCarran Intl
United States
More flights between these airports :: More routes between these airports
Route: SSTIK3 NTELL Q162 ESSAA BTY SUNST4
File this flight plan on PilotEdge
Remarks:
Altitude:
(Current/Filed)
310ft
Speed:
(Current/Filed)
450kts
Departed: 03-Aug-18 10:52 AM
Arrived: 03-Aug-18 11:59 AM
Distance/Time
Traveled:
359nm/1:07
Distance/Time
To Go:
Arrived

Flight Plot

Page will automatically refresh every two minutes.

Flight plan parsing failed; only flown route is shown


Map Options




Map Legend


Flown Route
Filed Route
Departure Airport
Arrival Airport
Navaid (VOR, NDB)
Fix

Horizontal Profiles

Position Reports

Time Latitude Longitude Heading Altitude Ground
Speed
03-Aug-18 10:26 37.619187 -122.383519 291 31ft 0kts
03-Aug-18 10:27 37.619187 -122.383519 291 31ft 0kts
03-Aug-18 10:28 37.619187 -122.383519 291 31ft 0kts
03-Aug-18 10:29 37.619187 -122.383519 291 31ft 0kts
03-Aug-18 10:30 37.619187 -122.383519 291 31ft 0kts
03-Aug-18 10:31 37.619187 -122.383519 291 31ft 0kts
03-Aug-18 10:32 37.619187 -122.383519 291 31ft 0kts
03-Aug-18 10:33 37.619187 -122.383519 291 31ft 0kts
03-Aug-18 10:34 37.619187 -122.383519 291 31ft 0kts
03-Aug-18 10:35 37.619187 -122.383519 291 31ft 0kts
03-Aug-18 10:36 37.619187 -122.383519 291 31ft 0kts
03-Aug-18 10:37 37.619187 -122.383519 291 31ft 0kts
03-Aug-18 10:38 37.619187 -122.383519 291 31ft 0kts
03-Aug-18 10:39 37.618906 -122.383039 349 31ft 2kts
03-Aug-18 10:40 37.618659 -122.383110 28 32ft 0kts
03-Aug-18 10:41 37.618659 -122.383110 28 32ft 0kts
03-Aug-18 10:42 37.618669 -122.383103 28 32ft 0kts
03-Aug-18 10:43 37.618669 -122.383103 28 32ft 0kts
03-Aug-18 10:44 37.618669 -122.383103 28 32ft 0kts
03-Aug-18 10:45 37.618669 -122.383103 28 32ft 0kts
03-Aug-18 10:46 37.618916 -122.382933 28 31ft 4kts
03-Aug-18 10:47 37.619588 -122.381856 109 30ft 9kts
03-Aug-18 10:48 37.616853 -122.379563 195 29ft 16kts
03-Aug-18 10:49 37.612697 -122.382255 207 31ft 16kts
03-Aug-18 10:50 37.609778 -122.384196 186 32ft 9kts
03-Aug-18 10:51 37.609080 -122.383449 122 31ft 0kts
03-Aug-18 10:52 37.609252 -122.382040 26 31ft 6kts
03-Aug-18 10:53 37.636502 -122.362991 27 1671ft 157kts
03-Aug-18 10:54 37.681109 -122.362997 337 3517ft 210kts
03-Aug-18 10:55 37.676005 -122.430809 211 6151ft 271kts
03-Aug-18 10:56 37.601718 -122.452052 191 9867ft 291kts
03-Aug-18 10:57 37.522754 -122.467404 184 10016ft 289kts
03-Aug-18 10:58 37.455144 -122.420930 126 10038ft 297kts
03-Aug-18 10:59 37.408709 -122.336159 120 10027ft 298kts
03-Aug-18 11:00 37.389377 -122.235879 102 10019ft 299kts
03-Aug-18 11:01 37.370029 -122.134461 103 10008ft 299kts
03-Aug-18 11:02 37.348624 -122.025806 104 12559ft 340kts
03-Aug-18 11:03 37.325526 -121.910065 104 15501ft 365kts
03-Aug-18 11:04 37.300028 -121.783394 104 18308ft 387kts
03-Aug-18 11:05 37.273033 -121.650339 104 19039ft 393kts
03-Aug-18 11:06 37.245869 -121.517409 104 19043ft 394kts
03-Aug-18 11:07 37.218309 -121.383510 104 19973ft 403kts
03-Aug-18 11:08 37.189637 -121.244727 105 22402ft 422kts
03-Aug-18 11:09 37.159708 -121.100739 107 23019ft 423kts
03-Aug-18 11:10 37.129890 -120.958161 108 24266ft 431kts
03-Aug-18 11:11 37.098715 -120.810659 108 26311ft 448kts
03-Aug-18 11:12 37.066157 -120.657771 107 28207ft 464kts
03-Aug-18 11:13 37.032307 -120.499888 107 30162ft 473kts
03-Aug-18 11:14 36.998070 -120.341358 107 31014ft 484kts
03-Aug-18 11:15 36.965643 -120.191777 107 31011ft 504kts
03-Aug-18 11:16 36.928730 -120.022669 106 31006ft 508kts
03-Aug-18 11:17 36.916926 -119.848681 77 31013ft 508kts
03-Aug-18 11:18 36.965193 -119.684234 65 31011ft 505kts
03-Aug-18 11:19 37.018647 -119.520552 65 31014ft 512kts
03-Aug-18 11:20 37.072205 -119.354466 65 31016ft 518kts
03-Aug-18 11:21 37.125889 -119.187902 65 31106ft 524kts
03-Aug-18 11:22 37.180546 -119.018574 65 31348ft 526kts
03-Aug-18 11:23 37.235136 -118.849933 64 31304ft 519kts
03-Aug-18 11:24 37.282357 -118.679377 80 31276ft 524kts
03-Aug-18 11:25 37.297474 -118.499529 82 31125ft 523kts
03-Aug-18 11:26 37.313052 -118.319953 82 31115ft 524kts
03-Aug-18 11:27 37.329242 -118.138874 82 31116ft 524kts
03-Aug-18 11:28 37.345645 -117.957397 82 31119ft 524kts
03-Aug-18 11:29 37.341934 -117.775213 97 31121ft 524kts
03-Aug-18 11:30 37.324598 -117.594140 97 31124ft 524kts
03-Aug-18 11:31 37.307991 -117.412465 96 31212ft 524kts
03-Aug-18 11:32 37.262575 -117.249142 129 31248ft 512kts
03-Aug-18 11:33 37.176386 -117.108264 132 31245ft 510kts
03-Aug-18 11:34 37.090286 -116.968202 133 31247ft 507kts
03-Aug-18 11:35 36.983143 -116.871940 155 31249ft 487kts
03-Aug-18 11:36 36.869625 -116.794175 155 31156ft 486kts
03-Aug-18 11:37 36.765884 -116.700999 134 31110ft 495kts
03-Aug-18 11:38 36.675551 -116.571164 133 31104ft 496kts
03-Aug-18 11:39 36.590068 -116.449075 134 29393ft 467kts
03-Aug-18 11:40 36.508852 -116.333808 134 26380ft 441kts
03-Aug-18 11:41 36.430688 -116.223305 134 23624ft 424kts
03-Aug-18 11:42 36.354376 -116.115866 134 21075ft 407kts
03-Aug-18 11:43 36.281516 -116.013649 134 18717ft 389kts
03-Aug-18 11:44 36.214280 -115.919614 134 16487ft 368kts
03-Aug-18 11:45 36.171898 -115.813677 113 15232ft 329kts
03-Aug-18 11:46 36.139013 -115.710699 113 14260ft 323kts
03-Aug-18 11:47 36.109858 -115.606597 114 13246ft 323kts
03-Aug-18 11:48 36.076489 -115.508216 114 12302ft 309kts
03-Aug-18 11:49 36.044011 -115.413110 114 11373ft 290kts
03-Aug-18 11:50 36.025949 -115.320766 96 10404ft 279kts
03-Aug-18 11:51 36.019489 -115.226573 96 9319ft 272kts
03-Aug-18 11:52 36.013548 -115.138067 96 8550ft 245kts
03-Aug-18 11:53 36.008121 -115.054800 95 7861ft 244kts
03-Aug-18 11:54 36.007286 -114.973388 90 6681ft 231kts
03-Aug-18 11:55 36.039634 -114.920094 358 5214ft 214kts
03-Aug-18 11:56 36.073793 -114.966498 274 4068ft 188kts
03-Aug-18 11:57 36.073704 -115.024788 272 3147ft 156kts
03-Aug-18 11:58 36.073650 -115.076329 271 2584ft 150kts
03-Aug-18 11:59 36.073658 -115.128581 270 2067ft 149kts
03-Aug-18 12:00 36.074928 -115.150954 307 2123ft 16kts
03-Aug-18 12:01 36.076779 -115.152173 335 2125ft 14kts
03-Aug-18 12:02 36.077994 -115.148225 57 2107ft 18kts
03-Aug-18 12:03 36.079910 -115.147136 55 2100ft 3kts

Navigation Log

Ident Type
Flight plan parsing failed, navigation log unavailable